sensor_id;sensor_type;location;lat;lon;timestamp;pressure;altitude;pressure_sealevel;temperature;humidity
69035;BME280;56091;55.756;37.412;2023-02-04T00:04:48;98436.88;;;-0.02;78.39
69035;BME280;56091;55.756;37.412;2023-02-04T00:09:48;98434.00;;;0.13;78.08
69035;BME280;56091;55.756;37.412;2023-02-04T00:14:49;98436.28;;;-0.04;77.80
69035;BME280;56091;55.756;37.412;2023-02-04T00:19:50;98433.03;;;0.01;77.94
69035;BME280;56091;55.756;37.412;2023-02-04T00:24:51;98441.34;;;0.17;77.74
69035;BME280;56091;55.756;37.412;2023-02-04T00:29:51;98444.19;;;0.09;77.16
69035;BME280;56091;55.756;37.412;2023-02-04T00:34:57;98454.63;;;0.04;77.80
69035;BME280;56091;55.756;37.412;2023-02-04T00:39:59;98436.69;;;-0.14;78.22
69035;BME280;56091;55.756;37.412;2023-02-04T00:45:00;98460.53;;;-0.01;78.12
69035;BME280;56091;55.756;37.412;2023-02-04T00:50:01;98458.50;;;0.02;77.67
69035;BME280;56091;55.756;37.412;2023-02-04T00:55:03;98439.16;;;-0.06;77.41
69035;BME280;56091;55.756;37.412;2023-02-04T01:00:05;98467.69;;;-0.01;77.73
69035;BME280;56091;55.756;37.412;2023-02-04T01:05:07;98465.44;;;-0.04;77.81
69035;BME280;56091;55.756;37.412;2023-02-04T01:10:08;98452.00;;;-0.16;77.94
69035;BME280;56091;55.756;37.412;2023-02-04T01:15:09;98441.81;;;-0.26;78.29
69035;BME280;56091;55.756;37.412;2023-02-04T01:20:10;98465.84;;;-0.01;78.44
69035;BME280;56091;55.756;37.412;2023-02-04T01:25:11;98462.75;;;0.09;78.14
69035;BME280;56091;55.756;37.412;2023-02-04T01:30:15;98478.66;;;0.23;77.32
69035;BME280;56091;55.756;37.412;2023-02-04T01:35:16;98483.97;;;0.09;77.53
69035;BME280;56091;55.756;37.412;2023-02-04T01:40:17;98466.28;;;-0.24;77.95
69035;BME280;56091;55.756;37.412;2023-02-04T01:45:18;98497.88;;;-0.15;78.24
69035;BME280;56091;55.756;37.412;2023-02-04T01:50:19;98497.47;;;-0.26;78.99
69035;BME280;56091;55.756;37.412;2023-02-04T01:55:24;98505.66;;;-0.21;79.08
69035;BME280;56091;55.756;37.412;2023-02-04T02:00:28;98494.41;;;-0.43;79.67
69035;BME280;56091;55.756;37.412;2023-02-04T02:05:38;98513.78;;;-0.22;79.70
69035;BME280;56091;55.756;37.412;2023-02-04T02:10:42;98518.06;;;-0.21;79.57
69035;BME280;56091;55.756;37.412;2023-02-04T02:15:44;98526.63;;;-0.26;79.97
69035;BME280;56091;55.756;37.412;2023-02-04T02:20:46;98528.25;;;-0.31;80.31
69035;BME280;56091;55.756;37.412;2023-02-04T02:25:47;98511.94;;;-0.35;80.06
69035;BME280;56091;55.756;37.412;2023-02-04T02:30:49;98540.91;;;-0.13;79.70
69035;BME280;56091;55.756;37.412;2023-02-04T02:35:50;98532.16;;;-0.07;79.65
69035;BME280;56091;55.756;37.412;2023-02-04T02:40:54;98526.84;;;-0.21;79.47
69035;BME280;56091;55.756;37.412;2023-02-04T02:45:57;98490.69;;;-0.75;80.32
69035;BME280;56091;55.756;37.412;2023-02-04T02:50:59;98542.91;;;-0.55;81.47
69035;BME280;56091;55.756;37.412;2023-02-04T02:56:00;98548.63;;;-0.45;81.00
69035;BME280;56091;55.756;37.412;2023-02-04T03:01:07;98548.03;;;-0.27;80.71
69035;BME280;56091;55.756;37.412;2023-02-04T03:06:21;98550.28;;;-0.31;80.32
69035;BME280;56091;55.756;37.412;2023-02-04T03:11:24;98555.41;;;-0.23;80.23
69035;BME280;56091;55.756;37.412;2023-02-04T03:16:30;98556.00;;;-0.21;79.35
69035;BME280;56091;55.756;37.412;2023-02-04T03:21:33;98557.44;;;-0.11;78.76
69035;BME280;56091;55.756;37.412;2023-02-04T03:26:34;98562.13;;;-0.07;78.68
69035;BME280;56091;55.756;37.412;2023-02-04T03:31:35;98578.06;;;0.00;78.21
69035;BME280;56091;55.756;37.412;2023-02-04T03:36:37;98563.75;;;0.01;78.16
69035;BME280;56091;55.756;37.412;2023-02-04T03:41:37;98578.66;;;-0.11;78.73
69035;BME280;56091;55.756;37.412;2023-02-04T03:46:38;98585.81;;;-0.05;78.80
69035;BME280;56091;55.756;37.412;2023-02-04T03:51:39;98584.16;;;-0.06;78.83
69035;BME280;56091;55.756;37.412;2023-02-04T03:56:40;98592.31;;;-0.08;78.64
69035;BME280;56091;55.756;37.412;2023-02-04T04:01:40;98570.44;;;-0.36;79.21
69035;BME280;56091;55.756;37.412;2023-02-04T04:06:41;98602.28;;;-0.23;79.43
69035;BME280;56091;55.756;37.412;2023-02-04T04:11:42;98603.72;;;-0.14;79.06
69035;BME280;56091;55.756;37.412;2023-02-04T04:16:42;98590.06;;;-0.24;78.71
69035;BME280;56091;55.756;37.412;2023-02-04T04:21:43;98618.84;;;-0.01;78.79
69035;BME280;56091;55.756;37.412;2023-02-04T04:26:44;98606.00;;;0.03;78.60
69035;BME280;56091;55.756;37.412;2023-02-04T04:31:45;98611.72;;;0.19;77.92
69035;BME280;56091;55.756;37.412;2023-02-04T04:36:45;98618.88;;;0.32;77.66
69035;BME280;56091;55.756;37.412;2023-02-04T04:41:47;98629.28;;;0.27;77.53
69035;BME280;56091;55.756;37.412;2023-02-04T04:46:47;98635.78;;;0.18;77.80
69035;BME280;56091;55.756;37.412;2023-02-04T04:51:48;98634.16;;;0.37;77.69
69035;BME280;56091;55.756;37.412;2023-02-04T04:56:49;98640.47;;;0.56;76.82
69035;BME280;56091;55.756;37.412;2023-02-04T05:01:50;98645.59;;;0.57;76.29
69035;BME280;56091;55.756;37.412;2023-02-04T05:06:51;98660.06;;;0.42;76.74
69035;BME280;56091;55.756;37.412;2023-02-04T05:11:52;98663.13;;;0.45;77.06
69035;BME280;56091;55.756;37.412;2023-02-04T05:16:52;98657.22;;;0.43;76.74
69035;BME280;56091;55.756;37.412;2023-02-04T05:21:53;98668.25;;;0.40;76.70
69035;BME280;56091;55.756;37.412;2023-02-04T05:26:54;98662.72;;;0.28;76.95
69035;BME280;56091;55.756;37.412;2023-02-04T05:31:55;98689.66;;;0.32;78.36
69035;BME280;56091;55.756;37.412;2023-02-04T05:36:55;98689.66;;;0.32;77.38
69035;BME280;56091;55.756;37.412;2023-02-04T05:41:56;98681.84;;;-0.16;78.38
69035;BME280;56091;55.756;37.412;2023-02-04T05:46:57;98695.47;;;-0.20;79.33
69035;BME280;56091;55.756;37.412;2023-02-04T05:51:57;98699.06;;;-0.47;80.01
69035;BME280;56091;55.756;37.412;2023-02-04T05:56:58;98701.91;;;-0.49;80.50
69035;BME280;56091;55.756;37.412;2023-02-04T06:02:01;98698.59;;;-0.64;81.01
69035;BME280;56091;55.756;37.412;2023-02-04T06:07:03;98711.03;;;-0.58;80.93
69035;BME280;56091;55.756;37.412;2023-02-04T06:12:06;98715.72;;;-0.53;80.74
69035;BME280;56091;55.756;37.412;2023-02-04T06:17:07;98725.09;;;-0.57;80.98
69035;BME280;56091;55.756;37.412;2023-02-04T06:22:07;98743.72;;;-0.44;80.44
69035;BME280;56091;55.756;37.412;2023-02-04T06:27:08;98742.09;;;-0.38;80.06
69035;BME280;56091;55.756;37.412;2023-02-04T06:32:09;98721.06;;;-0.47;79.87
69035;BME280;56091;55.756;37.412;2023-02-04T06:37:10;98730.69;;;-0.39;79.40
69035;BME280;56091;55.756;37.412;2023-02-04T06:42:12;98769.50;;;-0.25;79.59
69035;BME280;56091;55.756;37.412;2023-02-04T06:47:12;98778.22;;;-0.31;79.89
69035;BME280;56091;55.756;37.412;2023-02-04T06:52:13;98771.00;;;-0.50;80.09
69035;BME280;56091;55.756;37.412;2023-02-04T06:57:17;98745.97;;;-0.76;80.70
69035;BME280;56091;55.756;37.412;2023-02-04T07:02:18;98783.44;;;-0.51;81.09
69035;BME280;56091;55.756;37.412;2023-02-04T07:07:19;98798.16;;;-0.42;80.54
69035;BME280;56091;55.756;37.412;2023-02-04T07:12:19;98791.41;;;-0.09;79.81
69035;BME280;56091;55.756;37.412;2023-02-04T07:17:21;98802.00;;;-0.09;78.59
69035;BME280;56091;55.756;37.412;2023-02-04T07:22:22;98784.44;;;-0.10;78.46
69035;BME280;56091;55.756;37.412;2023-02-04T07:27:23;98801.25;;;0.17;77.66
69035;BME280;56091;55.756;37.412;2023-02-04T07:32:24;98809.13;;;0.58;76.77
69035;BME280;56091;55.756;37.412;2023-02-04T07:37:27;98808.97;;;0.93;74.93
69035;BME280;56091;55.756;37.412;2023-02-04T07:42:27;98818.78;;;1.46;73.26
69035;BME280;56091;55.756;37.412;2023-02-04T07:47:37;98829.59;;;1.45;71.86
69035;BME280;56091;55.756;37.412;2023-02-04T07:52:38;98825.84;;;1.79;71.26
69035;BME280;56091;55.756;37.412;2023-02-04T07:57:38;98827.06;;;2.35;69.62
69035;BME280;56091;55.756;37.412;2023-02-04T08:02:40;98836.97;;;2.60;67.90
69035;BME280;56091;55.756;37.412;2023-02-04T08:07:41;98831.31;;;2.49;68.24
69035;BME280;56091;55.756;37.412;2023-02-04T08:12:42;98832.31;;;2.87;67.48
69035;BME280;56091;55.756;37.412;2023-02-04T08:17:43;98827.91;;;3.24;65.45
69035;BME280;56091;55.756;37.412;2023-02-04T08:22:44;98845.84;;;3.36;64.86
69035;BME280;56091;55.756;37.412;2023-02-04T08:27:45;98847.47;;;2.86;64.80
69035;BME280;56091;55.756;37.412;2023-02-04T08:32:45;98853.81;;;2.53;66.09
69035;BME280;56091;55.756;37.412;2023-02-04T08:37:46;98852.88;;;2.34;67.00
69035;BME280;56091;55.756;37.412;2023-02-04T08:42:47;98840.44;;;2.22;67.09
69035;BME280;56091;55.756;37.412;2023-02-04T08:47:47;98864.81;;;2.12;67.34
69035;BME280;56091;55.756;37.412;2023-02-04T08:52:48;98864.06;;;1.98;67.63
69035;BME280;56091;55.756;37.412;2023-02-04T08:57:49;98866.56;;;1.86;67.91
69035;BME280;56091;55.756;37.412;2023-02-04T09:02:50;98870.47;;;1.77;68.06
69035;BME280;56091;55.756;37.412;2023-02-04T09:07:50;98877.16;;;1.93;68.38
69035;BME280;56091;55.756;37.412;2023-02-04T09:12:51;98870.84;;;1.94;67.77
69035;BME280;56091;55.756;37.412;2023-02-04T09:17:55;98883.09;;;1.95;67.75
69035;BME280;56091;55.756;37.412;2023-02-04T09:23:03;98893.72;;;2.02;67.94
69035;BME280;56091;55.756;37.412;2023-02-04T09:28:08;98896.19;;;2.03;67.92
69035;BME280;56091;55.756;37.412;2023-02-04T09:33:15;98890.03;;;2.03;67.85
69035;BME280;56091;55.756;37.412;2023-02-04T09:38:16;98889.84;;;1.91;68.48
69035;BME280;56091;55.756;37.412;2023-02-04T09:43:21;98893.75;;;1.82;68.70
69035;BME280;56091;55.756;37.412;2023-02-04T09:48:23;98891.31;;;1.87;68.56
69035;BME280;56091;55.756;37.412;2023-02-04T09:53:24;98899.06;;;2.02;68.04
69035;BME280;56091;55.756;37.412;2023-02-04T09:58:29;98896.59;;;2.07;67.40
69035;BME280;56091;55.756;37.412;2023-02-04T10:03:30;98909.03;;;2.20;67.68
69035;BME280;56091;55.756;37.412;2023-02-04T10:08:32;98910.88;;;2.26;67.50
69035;BME280;56091;55.756;37.412;2023-02-04T10:13:36;98916.78;;;2.28;67.60
69035;BME280;56091;55.756;37.412;2023-02-04T10:18:38;98920.53;;;2.07;68.61
69035;BME280;56091;55.756;37.412;2023-02-04T10:23:40;98920.75;;;2.05;69.05
69035;BME280;56091;55.756;37.412;2023-02-04T10:28:42;98924.63;;;2.09;68.68
69035;BME280;56091;55.756;37.412;2023-02-04T10:33:43;98921.50;;;2.26;68.44
69035;BME280;56091;55.756;37.412;2023-02-04T10:38:44;98940.97;;;2.20;68.41
69035;BME280;56091;55.756;37.412;2023-02-04T10:43:44;98933.03;;;2.00;68.58
69035;BME280;56091;55.756;37.412;2023-02-04T10:48:45;98945.69;;;2.04;68.87
69035;BME280;56091;55.756;37.412;2023-02-04T10:53:46;98936.88;;;2.10;68.49
69035;BME280;56091;55.756;37.412;2023-02-04T10:59:17;98962.06;;;2.08;68.23
69035;BME280;56091;55.756;37.412;2023-02-04T11:04:20;98960.03;;;1.97;68.73
69035;BME280;56091;55.756;37.412;2023-02-04T11:09:21;98965.16;;;1.98;69.16
69035;BME280;56091;55.756;37.412;2023-02-04T11:14:25;98971.91;;;2.07;68.82
69035;BME280;56091;55.756;37.412;2023-02-04T11:19:36;98969.25;;;2.01;68.84
69035;BME280;56091;55.756;37.412;2023-02-04T11:24:37;98977.41;;;1.99;68.74
69035;BME280;56091;55.756;37.412;2023-02-04T11:29:38;98973.13;;;1.91;69.37
69035;BME280;56091;55.756;37.412;2023-02-04T11:34:48;98962.72;;;1.63;69.52
69035;BME280;56091;55.756;37.412;2023-02-04T11:39:52;98978.47;;;1.65;69.98
69035;BME280;56091;55.756;37.412;2023-02-04T11:45:19;98977.66;;;1.44;70.62
69035;BME280;56091;55.756;37.412;2023-02-04T11:50:33;98989.50;;;1.55;70.67
69035;BME280;56091;55.756;37.412;2023-02-04T11:55:45;98997.91;;;1.52;71.03
69035;BME280;56091;55.756;37.412;2023-02-04T12:00:46;98979.44;;;1.30;71.45
69035;BME280;56091;55.756;37.412;2023-02-04T12:05:47;99007.66;;;1.18;72.34
69035;BME280;56091;55.756;37.412;2023-02-04T12:11:10;99008.66;;;1.17;72.71
69035;BME280;56091;55.756;37.412;2023-02-04T12:16:11;99019.72;;;1.27;72.62
69035;BME280;56091;55.756;37.412;2023-02-04T12:21:12;99019.34;;;1.44;72.16
69035;BME280;56091;55.756;37.412;2023-02-04T12:26:14;99023.44;;;1.53;71.32
69035;BME280;56091;55.756;37.412;2023-02-04T12:31:14;99027.94;;;1.59;70.67
69035;BME280;56091;55.756;37.412;2023-02-04T12:36:15;99029.59;;;1.60;70.70
69035;BME280;56091;55.756;37.412;2023-02-04T12:41:16;99033.50;;;1.64;70.32
69035;BME280;56091;55.756;37.412;2023-02-04T12:46:19;99038.81;;;1.64;69.77
69035;BME280;56091;55.756;37.412;2023-02-04T12:51:20;99021.41;;;1.55;69.66
69035;BME280;56091;55.756;37.412;2023-02-04T12:56:21;99038.38;;;1.61;69.21
69035;BME280;56091;55.756;37.412;2023-02-04T13:01:23;99065.63;;;1.69;68.72
69035;BME280;56091;55.756;37.412;2023-02-04T13:06:24;99069.28;;;1.68;68.18
69035;BME280;56091;55.756;37.412;2023-02-04T13:11:25;99070.53;;;1.66;68.72
69035;BME280;56091;55.756;37.412;2023-02-04T13:16:25;99083.41;;;1.62;68.50
69035;BME280;56091;55.756;37.412;2023-02-04T13:21:28;99085.25;;;1.62;68.54
69035;BME280;56091;55.756;37.412;2023-02-04T13:26:28;99073.75;;;1.48;69.09
69035;BME280;56091;55.756;37.412;2023-02-04T13:31:29;99087.91;;;1.62;68.41
69035;BME280;56091;55.756;37.412;2023-02-04T13:36:30;99072.34;;;1.52;68.42
69035;BME280;56091;55.756;37.412;2023-02-04T13:41:31;99094.66;;;1.58;68.17
69035;BME280;56091;55.756;37.412;2023-02-04T13:46:32;99099.09;;;1.44;68.46
69035;BME280;56091;55.756;37.412;2023-02-04T13:51:33;99102.78;;;1.43;68.35
69035;BME280;56091;55.756;37.412;2023-02-04T13:56:34;99103.59;;;1.43;67.80
69035;BME280;56091;55.756;37.412;2023-02-04T14:01:36;99111.75;;;1.42;67.60
69035;BME280;56091;55.756;37.412;2023-02-04T14:06:37;99122.59;;;1.40;67.37
69035;BME280;56091;55.756;37.412;2023-02-04T14:11:43;99118.88;;;1.28;67.59
69035;BME280;56091;55.756;37.412;2023-02-04T14:16:43;99136.03;;;1.25;68.26
69035;BME280;56091;55.756;37.412;2023-02-04T14:21:44;99153.63;;;1.26;69.04
69035;BME280;56091;55.756;37.412;2023-02-04T14:26:46;99134.75;;;1.14;69.41
69035;BME280;56091;55.756;37.412;2023-02-04T14:31:47;99161.16;;;1.23;69.77
69035;BME280;56091;55.756;37.412;2023-02-04T14:36:48;99164.28;;;1.33;69.73
69035;BME280;56091;55.756;37.412;2023-02-04T14:41:48;99172.66;;;1.30;69.35
69035;BME280;56091;55.756;37.412;2023-02-04T14:46:50;99165.66;;;1.22;69.77
69035;BME280;56091;55.756;37.412;2023-02-04T14:51:51;99173.63;;;1.22;69.48
69035;BME280;56091;55.756;37.412;2023-02-04T14:56:52;99175.72;;;0.98;69.22
69035;BME280;56091;55.756;37.412;2023-02-04T15:02:00;99182.94;;;1.05;69.43
69035;BME280;56091;55.756;37.412;2023-02-04T15:07:01;99187.38;;;0.97;69.71
69035;BME280;56091;55.756;37.412;2023-02-04T15:12:03;99189.22;;;0.97;69.87
69035;BME280;56091;55.756;37.412;2023-02-04T15:17:03;99203.41;;;1.11;69.72
69035;BME280;56091;55.756;37.412;2023-02-04T15:22:04;99209.53;;;1.11;69.71
69035;BME280;56091;55.756;37.412;2023-02-04T15:27:05;99212.63;;;1.15;69.59
69035;BME280;56091;55.756;37.412;2023-02-04T15:32:06;99219.97;;;1.13;70.73
69035;BME280;56091;55.756;37.412;2023-02-04T15:37:09;99224.22;;;1.07;71.49
69035;BME280;56091;55.756;37.412;2023-02-04T15:42:17;99232.19;;;1.07;71.76
69035;BME280;56091;55.756;37.412;2023-02-04T15:47:18;99228.09;;;1.05;71.47
69035;BME280;56091;55.756;37.412;2023-02-04T15:52:19;99236.09;;;1.11;71.58
69035;BME280;56091;55.756;37.412;2023-02-04T15:57:20;99202.19;;;0.85;71.94
69035;BME280;56091;55.756;37.412;2023-02-04T16:02:21;99242.47;;;1.17;71.93
69035;BME280;56091;55.756;37.412;2023-02-04T16:07:22;99247.53;;;1.12;71.94
69035;BME280;56091;55.756;37.412;2023-02-04T16:12:22;99256.16;;;1.14;72.15
69035;BME280;56091;55.756;37.412;2023-02-04T16:17:23;99256.94;;;1.08;72.40
69035;BME280;56091;55.756;37.412;2023-02-04T16:22:24;99263.53;;;0.90;72.26
69035;BME280;56091;55.756;37.412;2023-02-04T16:27:25;99239.16;;;0.58;72.92
69035;BME280;56091;55.756;37.412;2023-02-04T16:32:26;99274.53;;;0.87;73.22
69035;BME280;56091;55.756;37.412;2023-02-04T16:37:27;99287.97;;;0.79;73.31
69035;BME280;56091;55.756;37.412;2023-02-04T16:42:30;99284.25;;;0.73;73.23
69035;BME280;56091;55.756;37.412;2023-02-04T16:47:31;99295.31;;;0.77;73.13
69035;BME280;56091;55.756;37.412;2023-02-04T16:52:34;99224.72;;;0.39;72.85
69035;BME280;56091;55.756;37.412;2023-02-04T16:57:35;99295.03;;;0.93;72.42
69035;BME280;56091;55.756;37.412;2023-02-04T17:02:36;99299.72;;;0.91;72.49
69035;BME280;56091;55.756;37.412;2023-02-04T17:07:37;99308.31;;;0.93;71.99
69035;BME280;56091;55.756;37.412;2023-02-04T17:12:38;99303.56;;;0.89;72.04
69035;BME280;56091;55.756;37.412;2023-02-04T17:17:38;99298.41;;;0.81;71.98
69035;BME280;56091;55.756;37.412;2023-02-04T17:22:39;99323.38;;;0.86;72.13
69035;BME280;56091;55.756;37.412;2023-02-04T17:27:40;99315.91;;;0.75;72.44
69035;BME280;56091;55.756;37.412;2023-02-04T17:32:40;99332.03;;;0.73;72.53
69035;BME280;56091;55.756;37.412;2023-02-04T17:37:41;99336.16;;;0.76;72.22
69035;BME280;56091;55.756;37.412;2023-02-04T17:42:42;99328.38;;;0.74;71.83
69035;BME280;56091;55.756;37.412;2023-02-04T17:47:43;99329.81;;;0.77;72.52
69035;BME280;56091;55.756;37.412;2023-02-04T17:52:44;99331.66;;;0.76;72.95
69035;BME280;56091;55.756;37.412;2023-02-04T17:57:45;99334.19;;;0.63;73.57
69035;BME280;56091;55.756;37.412;2023-02-04T18:02:48;99330.72;;;0.63;73.79
69035;BME280;56091;55.756;37.412;2023-02-04T18:08:11;99320.69;;;0.43;74.06
69035;BME280;56091;55.756;37.412;2023-02-04T18:13:39;99341.56;;;0.46;73.98
69035;BME280;56091;55.756;37.412;2023-02-04T18:18:39;99351.16;;;0.47;74.84
69035;BME280;56091;55.756;37.412;2023-02-04T18:23:40;99335.31;;;0.32;74.28
69035;BME280;56091;55.756;37.412;2023-02-04T18:28:44;99352.19;;;0.46;74.39
69035;BME280;56091;55.756;37.412;2023-02-04T18:33:45;99365.00;;;0.43;73.79
69035;BME280;56091;55.756;37.412;2023-02-04T18:38:46;99380.03;;;0.21;74.30
69035;BME280;56091;55.756;37.412;2023-02-04T18:43:57;99372.09;;;0.21;74.68
69035;BME280;56091;55.756;37.412;2023-02-04T18:49:24;99389.66;;;0.07;74.77
69035;BME280;56091;55.756;37.412;2023-02-04T18:54:37;99393.13;;;0.07;74.57
69035;BME280;56091;55.756;37.412;2023-02-04T18:59:40;99397.72;;;0.13;74.77
69035;BME280;56091;55.756;37.412;2023-02-04T19:04:43;99392.13;;;0.23;74.67
69035;BME280;56091;55.756;37.412;2023-02-04T19:09:44;99408.22;;;0.22;74.70
69035;BME280;56091;55.756;37.412;2023-02-04T19:14:49;99403.91;;;0.21;74.41
69035;BME280;56091;55.756;37.412;2023-02-04T19:20:16;99417.19;;;0.21;74.98
69035;BME280;56091;55.756;37.412;2023-02-04T19:25:33;99416.31;;;0.13;74.84
69035;BME280;56091;55.756;37.412;2023-02-04T19:30:54;99358.75;;;-0.31;75.70
69035;BME280;56091;55.756;37.412;2023-02-04T19:35:55;99429.19;;;0.02;76.36
69035;BME280;56091;55.756;37.412;2023-02-04T19:40:59;99419.41;;;0.02;77.59
69035;BME280;56091;55.756;37.412;2023-02-04T19:46:01;99426.72;;;0.15;77.64
69035;BME280;56091;55.756;37.412;2023-02-04T19:51:20;99440.88;;;0.07;77.60
69035;BME280;56091;55.756;37.412;2023-02-04T19:56:35;99436.88;;;-0.04;77.22
69035;BME280;56091;55.756;37.412;2023-02-04T20:01:37;99434.56;;;-0.22;77.51
69035;BME280;56091;55.756;37.412;2023-02-04T20:06:42;99436.03;;;-0.34;78.38
69035;BME280;56091;55.756;37.412;2023-02-04T20:12:07;99449.28;;;-0.34;77.93
69035;BME280;56091;55.756;37.412;2023-02-04T20:17:18;99451.00;;;-0.41;78.26
69035;BME280;56091;55.756;37.412;2023-02-04T20:32:25;99455.94;;;-0.61;77.85
69035;BME280;56091;55.756;37.412;2023-02-04T20:37:26;99482.88;;;-0.49;78.17
69035;BME280;56091;55.756;37.412;2023-02-04T20:42:28;99472.63;;;-0.52;77.72
69035;BME280;56091;55.756;37.412;2023-02-04T20:47:33;99479.09;;;-0.55;78.27
69035;BME280;56091;55.756;37.412;2023-02-04T20:57:45;99488.19;;;-0.49;77.19
69035;BME280;56091;55.756;37.412;2023-02-04T21:02:46;99425.84;;;-0.83;77.19
69035;BME280;56091;55.756;37.412;2023-02-04T21:07:46;99393.69;;;-1.03;77.01
69035;BME280;56091;55.756;37.412;2023-02-04T21:12:48;99431.22;;;-0.76;76.96
69035;BME280;56091;55.756;37.412;2023-02-04T21:17:49;99453.84;;;-0.89;76.77
69035;BME280;56091;55.756;37.412;2023-02-04T21:22:50;99495.28;;;-0.73;77.67
69035;BME280;56091;55.756;37.412;2023-02-04T21:27:50;99496.72;;;-0.62;76.92
69035;BME280;56091;55.756;37.412;2023-02-04T21:32:51;99489.28;;;-0.67;76.61
69035;BME280;56091;55.756;37.412;2023-02-04T21:37:53;99503.06;;;-0.71;76.49
69035;BME280;56091;55.756;37.412;2023-02-04T21:42:54;99498.00;;;-0.81;76.57
69035;BME280;56091;55.756;37.412;2023-02-04T21:47:55;99533.16;;;-0.64;76.56
69035;BME280;56091;55.756;37.412;2023-02-04T21:52:56;99539.69;;;-0.75;76.52
69035;BME280;56091;55.756;37.412;2023-02-04T21:57:59;99546.34;;;-0.79;76.69
69035;BME280;56091;55.756;37.412;2023-02-04T22:02:59;99549.97;;;-0.80;76.65
69035;BME280;56091;55.756;37.412;2023-02-04T22:08:00;99545.69;;;-0.81;77.18
69035;BME280;56091;55.756;37.412;2023-02-04T22:13:01;99530.50;;;-0.87;77.12
69035;BME280;56091;55.756;37.412;2023-02-04T22:18:26;99564.13;;;-0.65;76.65
69035;BME280;56091;55.756;37.412;2023-02-04T22:23:28;99553.47;;;-0.80;76.64
69035;BME280;56091;55.756;37.412;2023-02-04T22:28:28;99564.22;;;-0.81;77.08
69035;BME280;56091;55.756;37.412;2023-02-04T22:33:29;99555.81;;;-0.85;76.76
69035;BME280;56091;55.756;37.412;2023-02-04T22:38:30;99583.09;;;-0.84;77.21
69035;BME280;56091;55.756;37.412;2023-02-04T22:43:30;99581.59;;;-0.79;77.15
69035;BME280;56091;55.756;37.412;2023-02-04T22:48:31;99592.34;;;-0.80;76.57
69035;BME280;56091;55.756;37.412;2023-02-04T22:53:32;99587.22;;;-0.82;76.23
69035;BME280;56091;55.756;37.412;2023-02-04T22:58:33;99579.69;;;-0.93;75.69
69035;BME280;56091;55.756;37.412;2023-02-04T23:03:36;99584.78;;;-0.91;75.51
69035;BME280;56091;55.756;37.412;2023-02-04T23:08:37;99602.66;;;-0.85;75.16
69035;BME280;56091;55.756;37.412;2023-02-04T23:13:38;99604.25;;;-0.76;75.69
69035;BME280;56091;55.756;37.412;2023-02-04T23:18:41;99601.22;;;-0.65;74.83
69035;BME280;56091;55.756;37.412;2023-02-04T23:23:42;99593.75;;;-0.61;73.75
69035;BME280;56091;55.756;37.412;2023-02-04T23:28:43;99608.41;;;-0.82;73.79
69035;BME280;56091;55.756;37.412;2023-02-04T23:33:44;99614.72;;;-0.83;73.95
69035;BME280;56091;55.756;37.412;2023-02-04T23:38:44;99618.56;;;-0.85;73.89
69035;BME280;56091;55.756;37.412;2023-02-04T23:43:45;99616.84;;;-0.78;73.47
69035;BME280;56091;55.756;37.412;2023-02-04T23:48:46;99624.63;;;-0.76;73.70
69035;BME280;56091;55.756;37.412;2023-02-04T23:53:47;99632.94;;;-0.80;73.60
69035;BME280;56091;55.756;37.412;2023-02-04T23:58:47;99618.88;;;-0.88;73.42
